sensor_id;sensor_type;location;lat;lon;timestamp;P1;durP1;ratioP1;P2;durP2;ratioP2
71646;SDS011;59706;45.634;11.704;2023-05-16T00:02:02;6.00;;;2.30;;
71646;SDS011;59706;45.634;11.704;2023-05-16T00:04:30;8.60;;;1.90;;
71646;SDS011;59706;45.634;11.704;2023-05-16T00:06:58;5.30;;;1.80;;
71646;SDS011;59706;45.634;11.704;2023-05-16T00:09:25;5.90;;;1.80;;
71646;SDS011;59706;45.634;11.704;2023-05-16T00:11:53;7.50;;;2.00;;
71646;SDS011;59706;45.634;11.704;2023-05-16T00:14:21;6.30;;;1.90;;
71646;SDS011;59706;45.634;11.704;2023-05-16T00:16:54;6.10;;;1.70;;
71646;SDS011;59706;45.634;11.704;2023-05-16T00:19:23;4.70;;;1.40;;
71646;SDS011;59706;45.634;11.704;2023-05-16T00:21:51;6.40;;;1.80;;
71646;SDS011;59706;45.634;11.704;2023-05-16T00:24:18;5.90;;;1.70;;
71646;SDS011;59706;45.634;11.704;2023-05-16T00:26:46;5.90;;;1.70;;
71646;SDS011;59706;45.634;11.704;2023-05-16T00:29:13;4.80;;;1.50;;
71646;SDS011;59706;45.634;11.704;2023-05-16T00:31:40;4.90;;;1.20;;
71646;SDS011;59706;45.634;11.704;2023-05-16T00:34:08;4.50;;;1.40;;
71646;SDS011;59706;45.634;11.704;2023-05-16T00:36:36;5.00;;;1.60;;
71646;SDS011;59706;45.634;11.704;2023-05-16T00:39:03;4.80;;;1.30;;
71646;SDS011;59706;45.634;11.704;2023-05-16T00:41:29;6.00;;;1.50;;
71646;SDS011;59706;45.634;11.704;2023-05-16T00:43:57;4.40;;;1.30;;
71646;SDS011;59706;45.634;11.704;2023-05-16T00:46:24;4.20;;;1.00;;
71646;SDS011;59706;45.634;11.704;2023-05-16T00:48:51;4.70;;;1.50;;
71646;SDS011;59706;45.634;11.704;2023-05-16T00:51:19;4.10;;;1.20;;
71646;SDS011;59706;45.634;11.704;2023-05-16T01:08:32;4.20;;;1.30;;
71646;SDS011;59706;45.634;11.704;2023-05-16T01:11:11;3.50;;;0.90;;
71646;SDS011;59706;45.634;11.704;2023-05-16T01:16:39;4.50;;;1.20;;
71646;SDS011;59706;45.634;11.704;2023-05-16T01:28:12;4.10;;;1.20;;
71646;SDS011;59706;45.634;11.704;2023-05-16T01:30:40;4.80;;;1.10;;
71646;SDS011;59706;45.634;11.704;2023-05-16T01:33:08;5.80;;;1.30;;
71646;SDS011;59706;45.634;11.704;2023-05-16T01:36:04;4.20;;;1.30;;
71646;SDS011;59706;45.634;11.704;2023-05-16T01:44:42;3.40;;;0.90;;
71646;SDS011;59706;45.634;11.704;2023-05-16T01:47:13;4.40;;;1.50;;
71646;SDS011;59706;45.634;11.704;2023-05-16T01:55:43;4.60;;;1.20;;
71646;SDS011;59706;45.634;11.704;2023-05-16T01:58:14;5.60;;;1.30;;
71646;SDS011;59706;45.634;11.704;2023-05-16T02:00:41;5.20;;;1.40;;
71646;SDS011;59706;45.634;11.704;2023-05-16T02:03:09;4.70;;;1.00;;
71646;SDS011;59706;45.634;11.704;2023-05-16T02:05:36;4.80;;;1.10;;
71646;SDS011;59706;45.634;11.704;2023-05-16T02:08:05;4.40;;;1.10;;
71646;SDS011;59706;45.634;11.704;2023-05-16T02:10:33;3.30;;;0.70;;
71646;SDS011;59706;45.634;11.704;2023-05-16T02:12:59;4.60;;;1.10;;
71646;SDS011;59706;45.634;11.704;2023-05-16T02:15:27;4.00;;;1.00;;
71646;SDS011;59706;45.634;11.704;2023-05-16T02:17:55;5.40;;;1.40;;
71646;SDS011;59706;45.634;11.704;2023-05-16T02:20:23;4.60;;;1.20;;
71646;SDS011;59706;45.634;11.704;2023-05-16T02:22:50;3.50;;;0.90;;
71646;SDS011;59706;45.634;11.704;2023-05-16T02:25:17;5.40;;;1.20;;
71646;SDS011;59706;45.634;11.704;2023-05-16T02:27:45;4.40;;;1.30;;
71646;SDS011;59706;45.634;11.704;2023-05-16T02:30:12;5.00;;;1.10;;
71646;SDS011;59706;45.634;11.704;2023-05-16T02:32:40;6.00;;;1.20;;
71646;SDS011;59706;45.634;11.704;2023-05-16T02:35:10;6.30;;;1.40;;
71646;SDS011;59706;45.634;11.704;2023-05-16T02:37:37;4.80;;;1.40;;
71646;SDS011;59706;45.634;11.704;2023-05-16T02:40:06;5.40;;;1.10;;
71646;SDS011;59706;45.634;11.704;2023-05-16T02:42:35;4.00;;;1.10;;
71646;SDS011;59706;45.634;11.704;2023-05-16T02:45:03;5.40;;;1.50;;
71646;SDS011;59706;45.634;11.704;2023-05-16T02:47:32;3.70;;;1.10;;
71646;SDS011;59706;45.634;11.704;2023-05-16T02:50:00;4.50;;;1.00;;
71646;SDS011;59706;45.634;11.704;2023-05-16T02:52:28;3.80;;;1.00;;
71646;SDS011;59706;45.634;11.704;2023-05-16T02:54:56;4.20;;;1.00;;
71646;SDS011;59706;45.634;11.704;2023-05-16T02:57:23;3.70;;;0.80;;
71646;SDS011;59706;45.634;11.704;2023-05-16T02:59:51;3.60;;;1.00;;
71646;SDS011;59706;45.634;11.704;2023-05-16T03:02:18;3.80;;;1.20;;
71646;SDS011;59706;45.634;11.704;2023-05-16T03:04:46;4.00;;;1.00;;
71646;SDS011;59706;45.634;11.704;2023-05-16T03:07:14;3.50;;;0.90;;
71646;SDS011;59706;45.634;11.704;2023-05-16T03:09:42;4.70;;;1.20;;
71646;SDS011;59706;45.634;11.704;2023-05-16T03:12:10;4.20;;;1.00;;
71646;SDS011;59706;45.634;11.704;2023-05-16T03:14:37;4.00;;;1.20;;
71646;SDS011;59706;45.634;11.704;2023-05-16T03:17:04;4.40;;;1.30;;
71646;SDS011;59706;45.634;11.704;2023-05-16T03:19:32;4.50;;;1.20;;
71646;SDS011;59706;45.634;11.704;2023-05-16T03:22:00;3.80;;;1.20;;
71646;SDS011;59706;45.634;11.704;2023-05-16T03:24:27;4.00;;;1.20;;
71646;SDS011;59706;45.634;11.704;2023-05-16T03:26:54;5.00;;;1.10;;
71646;SDS011;59706;45.634;11.704;2023-05-16T03:29:21;4.30;;;1.00;;
71646;SDS011;59706;45.634;11.704;2023-05-16T03:31:48;4.50;;;1.00;;
71646;SDS011;59706;45.634;11.704;2023-05-16T03:34:16;4.90;;;1.20;;
71646;SDS011;59706;45.634;11.704;2023-05-16T03:36:43;4.60;;;1.10;;
71646;SDS011;59706;45.634;11.704;2023-05-16T03:39:11;4.40;;;1.20;;
71646;SDS011;59706;45.634;11.704;2023-05-16T03:41:38;5.40;;;1.40;;
71646;SDS011;59706;45.634;11.704;2023-05-16T03:44:06;3.60;;;1.10;;
71646;SDS011;59706;45.634;11.704;2023-05-16T03:46:34;5.60;;;1.00;;
71646;SDS011;59706;45.634;11.704;2023-05-16T03:49:02;4.00;;;1.20;;
71646;SDS011;59706;45.634;11.704;2023-05-16T03:51:29;4.20;;;1.10;;
71646;SDS011;59706;45.634;11.704;2023-05-16T03:53:58;4.50;;;1.40;;
71646;SDS011;59706;45.634;11.704;2023-05-16T03:56:25;3.70;;;0.90;;
71646;SDS011;59706;45.634;11.704;2023-05-16T03:58:53;4.60;;;1.50;;
71646;SDS011;59706;45.634;11.704;2023-05-16T04:01:21;6.50;;;1.00;;
71646;SDS011;59706;45.634;11.704;2023-05-16T04:03:49;5.80;;;1.10;;
71646;SDS011;59706;45.634;11.704;2023-05-16T04:06:16;4.00;;;1.20;;
71646;SDS011;59706;45.634;11.704;2023-05-16T04:08:44;5.50;;;1.20;;
71646;SDS011;59706;45.634;11.704;2023-05-16T04:11:11;4.20;;;1.20;;
71646;SDS011;59706;45.634;11.704;2023-05-16T04:13:39;4.00;;;1.00;;
71646;SDS011;59706;45.634;11.704;2023-05-16T04:16:08;4.70;;;1.00;;
71646;SDS011;59706;45.634;11.704;2023-05-16T04:18:35;4.50;;;1.30;;
71646;SDS011;59706;45.634;11.704;2023-05-16T04:21:04;4.30;;;1.00;;
71646;SDS011;59706;45.634;11.704;2023-05-16T04:23:32;3.80;;;1.10;;
71646;SDS011;59706;45.634;11.704;2023-05-16T04:25:59;3.50;;;0.90;;
71646;SDS011;59706;45.634;11.704;2023-05-16T04:28:29;5.60;;;1.10;;
71646;SDS011;59706;45.634;11.704;2023-05-16T04:30:57;3.80;;;1.30;;
71646;SDS011;59706;45.634;11.704;2023-05-16T04:33:25;5.50;;;1.30;;
71646;SDS011;59706;45.634;11.704;2023-05-16T04:35:53;4.90;;;0.90;;
71646;SDS011;59706;45.634;11.704;2023-05-16T04:38:20;5.90;;;1.50;;
71646;SDS011;59706;45.634;11.704;2023-05-16T04:40:48;10.30;;;3.50;;
71646;SDS011;59706;45.634;11.704;2023-05-16T04:43:16;5.90;;;1.90;;
71646;SDS011;59706;45.634;11.704;2023-05-16T04:45:43;5.70;;;1.80;;
71646;SDS011;59706;45.634;11.704;2023-05-16T04:48:11;5.80;;;1.80;;
71646;SDS011;59706;45.634;11.704;2023-05-16T04:50:38;5.20;;;1.50;;
71646;SDS011;59706;45.634;11.704;2023-05-16T04:53:05;5.30;;;1.60;;
71646;SDS011;59706;45.634;11.704;2023-05-16T04:55:33;4.70;;;1.60;;
71646;SDS011;59706;45.634;11.704;2023-05-16T04:58:01;6.20;;;1.80;;
71646;SDS011;59706;45.634;11.704;2023-05-16T05:00:28;7.40;;;1.90;;
71646;SDS011;59706;45.634;11.704;2023-05-16T05:02:56;6.90;;;1.70;;
71646;SDS011;59706;45.634;11.704;2023-05-16T05:05:24;5.80;;;2.10;;
71646;SDS011;59706;45.634;11.704;2023-05-16T05:07:52;5.30;;;1.70;;
71646;SDS011;59706;45.634;11.704;2023-05-16T05:10:20;5.80;;;1.70;;
71646;SDS011;59706;45.634;11.704;2023-05-16T05:12:47;5.80;;;1.60;;
71646;SDS011;59706;45.634;11.704;2023-05-16T05:15:14;6.10;;;1.70;;
71646;SDS011;59706;45.634;11.704;2023-05-16T05:17:42;5.10;;;1.90;;
71646;SDS011;59706;45.634;11.704;2023-05-16T05:20:12;5.30;;;1.90;;
71646;SDS011;59706;45.634;11.704;2023-05-16T05:22:39;7.40;;;1.70;;
71646;SDS011;59706;45.634;11.704;2023-05-16T05:25:08;7.10;;;1.60;;
71646;SDS011;59706;45.634;11.704;2023-05-16T05:27:37;5.00;;;1.70;;
71646;SDS011;59706;45.634;11.704;2023-05-16T05:30:07;5.20;;;1.60;;
71646;SDS011;59706;45.634;11.704;2023-05-16T05:32:36;5.80;;;1.70;;
71646;SDS011;59706;45.634;11.704;2023-05-16T05:35:03;6.30;;;1.60;;
71646;SDS011;59706;45.634;11.704;2023-05-16T05:37:33;6.10;;;1.90;;
71646;SDS011;59706;45.634;11.704;2023-05-16T05:40:03;4.90;;;1.60;;
71646;SDS011;59706;45.634;11.704;2023-05-16T05:42:32;5.40;;;1.70;;
71646;SDS011;59706;45.634;11.704;2023-05-16T05:44:59;6.00;;;1.60;;
71646;SDS011;59706;45.634;11.704;2023-05-16T05:47:27;5.10;;;1.40;;
71646;SDS011;59706;45.634;11.704;2023-05-16T05:49:55;6.00;;;1.60;;
71646;SDS011;59706;45.634;11.704;2023-05-16T05:52:22;6.00;;;1.50;;
71646;SDS011;59706;45.634;11.704;2023-05-16T05:54:50;5.70;;;1.60;;
71646;SDS011;59706;45.634;11.704;2023-05-16T05:57:16;4.80;;;1.70;;
71646;SDS011;59706;45.634;11.704;2023-05-16T05:59:45;5.00;;;1.80;;
71646;SDS011;59706;45.634;11.704;2023-05-16T06:02:13;5.30;;;1.90;;
71646;SDS011;59706;45.634;11.704;2023-05-16T06:04:40;5.10;;;1.40;;
71646;SDS011;59706;45.634;11.704;2023-05-16T06:07:08;5.50;;;2.00;;
71646;SDS011;59706;45.634;11.704;2023-05-16T06:09:35;5.00;;;1.80;;
71646;SDS011;59706;45.634;11.704;2023-05-16T06:12:02;7.70;;;2.40;;
71646;SDS011;59706;45.634;11.704;2023-05-16T06:14:32;5.80;;;2.00;;
71646;SDS011;59706;45.634;11.704;2023-05-16T06:16:59;5.70;;;2.10;;
71646;SDS011;59706;45.634;11.704;2023-05-16T06:19:27;7.70;;;3.20;;
71646;SDS011;59706;45.634;11.704;2023-05-16T06:21:54;6.40;;;3.10;;
71646;SDS011;59706;45.634;11.704;2023-05-16T06:24:22;10.20;;;5.40;;
71646;SDS011;59706;45.634;11.704;2023-05-16T06:26:50;7.80;;;3.60;;
71646;SDS011;59706;45.634;11.704;2023-05-16T06:29:17;7.40;;;3.10;;
71646;SDS011;59706;45.634;11.704;2023-05-16T06:31:45;7.00;;;2.80;;
71646;SDS011;59706;45.634;11.704;2023-05-16T06:34:12;6.60;;;2.30;;
71646;SDS011;59706;45.634;11.704;2023-05-16T06:36:40;6.00;;;2.10;;
71646;SDS011;59706;45.634;11.704;2023-05-16T06:39:09;5.70;;;1.50;;
71646;SDS011;59706;45.634;11.704;2023-05-16T06:41:37;6.90;;;1.90;;
71646;SDS011;59706;45.634;11.704;2023-05-16T06:44:04;5.70;;;1.80;;
71646;SDS011;59706;45.634;11.704;2023-05-16T06:46:32;4.40;;;1.30;;
71646;SDS011;59706;45.634;11.704;2023-05-16T06:48:59;5.00;;;1.60;;
71646;SDS011;59706;45.634;11.704;2023-05-16T06:51:27;6.40;;;1.70;;
71646;SDS011;59706;45.634;11.704;2023-05-16T06:53:55;4.50;;;1.10;;
71646;SDS011;59706;45.634;11.704;2023-05-16T06:56:23;5.20;;;1.40;;
71646;SDS011;59706;45.634;11.704;2023-05-16T06:58:51;5.80;;;1.60;;
71646;SDS011;59706;45.634;11.704;2023-05-16T07:01:19;6.00;;;1.40;;
71646;SDS011;59706;45.634;11.704;2023-05-16T07:03:46;5.70;;;1.50;;
71646;SDS011;59706;45.634;11.704;2023-05-16T07:06:14;5.10;;;1.20;;
71646;SDS011;59706;45.634;11.704;2023-05-16T07:08:41;5.10;;;1.40;;
71646;SDS011;59706;45.634;11.704;2023-05-16T07:11:09;5.10;;;1.60;;
71646;SDS011;59706;45.634;11.704;2023-05-16T07:13:36;5.40;;;1.50;;
71646;SDS011;59706;45.634;11.704;2023-05-16T07:16:05;5.30;;;1.50;;
71646;SDS011;59706;45.634;11.704;2023-05-16T07:18:33;5.60;;;1.30;;
71646;SDS011;59706;45.634;11.704;2023-05-16T07:21:00;4.70;;;1.50;;
71646;SDS011;59706;45.634;11.704;2023-05-16T07:23:27;6.10;;;1.50;;
71646;SDS011;59706;45.634;11.704;2023-05-16T07:25:55;6.50;;;1.90;;
71646;SDS011;59706;45.634;11.704;2023-05-16T07:28:22;8.60;;;2.80;;
71646;SDS011;59706;45.634;11.704;2023-05-16T07:30:50;7.30;;;2.80;;
71646;SDS011;59706;45.634;11.704;2023-05-16T07:33:17;6.60;;;2.40;;
71646;SDS011;59706;45.634;11.704;2023-05-16T07:35:45;6.00;;;2.00;;
71646;SDS011;59706;45.634;11.704;2023-05-16T07:38:12;5.80;;;1.90;;
71646;SDS011;59706;45.634;11.704;2023-05-16T07:40:40;6.50;;;2.50;;
71646;SDS011;59706;45.634;11.704;2023-05-16T07:43:07;8.50;;;2.40;;
71646;SDS011;59706;45.634;11.704;2023-05-16T07:45:35;6.80;;;2.40;;
71646;SDS011;59706;45.634;11.704;2023-05-16T07:48:02;7.80;;;2.90;;
71646;SDS011;59706;45.634;11.704;2023-05-16T07:50:30;6.90;;;2.90;;
71646;SDS011;59706;45.634;11.704;2023-05-16T07:52:57;6.50;;;1.90;;
71646;SDS011;59706;45.634;11.704;2023-05-16T07:55:25;6.50;;;2.00;;
71646;SDS011;59706;45.634;11.704;2023-05-16T07:57:53;5.70;;;1.80;;
71646;SDS011;59706;45.634;11.704;2023-05-16T08:00:21;7.20;;;2.00;;
71646;SDS011;59706;45.634;11.704;2023-05-16T08:02:49;6.70;;;1.90;;
71646;SDS011;59706;45.634;11.704;2023-05-16T08:05:17;6.50;;;2.00;;
71646;SDS011;59706;45.634;11.704;2023-05-16T08:07:45;7.70;;;1.70;;
71646;SDS011;59706;45.634;11.704;2023-05-16T08:10:12;6.90;;;1.90;;
71646;SDS011;59706;45.634;11.704;2023-05-16T08:12:40;6.60;;;1.90;;
71646;SDS011;59706;45.634;11.704;2023-05-16T08:15:09;7.00;;;1.80;;
71646;SDS011;59706;45.634;11.704;2023-05-16T08:17:38;6.00;;;1.90;;
71646;SDS011;59706;45.634;11.704;2023-05-16T08:20:08;6.50;;;1.70;;
71646;SDS011;59706;45.634;11.704;2023-05-16T08:22:37;8.00;;;2.10;;
71646;SDS011;59706;45.634;11.704;2023-05-16T08:25:06;6.40;;;1.80;;
71646;SDS011;59706;45.634;11.704;2023-05-16T08:27:35;6.90;;;1.70;;
71646;SDS011;59706;45.634;11.704;2023-05-16T08:30:03;5.20;;;1.50;;
71646;SDS011;59706;45.634;11.704;2023-05-16T08:32:32;6.50;;;1.80;;
71646;SDS011;59706;45.634;11.704;2023-05-16T08:35:00;7.80;;;2.10;;
71646;SDS011;59706;45.634;11.704;2023-05-16T08:37:28;5.30;;;1.60;;
71646;SDS011;59706;45.634;11.704;2023-05-16T08:39:56;6.60;;;1.90;;
71646;SDS011;59706;45.634;11.704;2023-05-16T08:42:24;5.70;;;1.60;;
71646;SDS011;59706;45.634;11.704;2023-05-16T08:44:52;7.90;;;2.30;;
71646;SDS011;59706;45.634;11.704;2023-05-16T08:47:21;8.10;;;2.40;;
71646;SDS011;59706;45.634;11.704;2023-05-16T08:49:50;5.40;;;1.70;;
71646;SDS011;59706;45.634;11.704;2023-05-16T08:52:18;7.80;;;2.20;;
71646;SDS011;59706;45.634;11.704;2023-05-16T08:54:49;7.30;;;1.90;;
71646;SDS011;59706;45.634;11.704;2023-05-16T08:57:16;5.70;;;2.00;;
71646;SDS011;59706;45.634;11.704;2023-05-16T08:59:45;5.80;;;1.90;;
71646;SDS011;59706;45.634;11.704;2023-05-16T09:02:11;6.20;;;1.80;;
71646;SDS011;59706;45.634;11.704;2023-05-16T09:04:39;5.70;;;2.00;;
71646;SDS011;59706;45.634;11.704;2023-05-16T09:07:07;5.80;;;1.70;;
71646;SDS011;59706;45.634;11.704;2023-05-16T09:09:35;5.80;;;1.70;;
71646;SDS011;59706;45.634;11.704;2023-05-16T09:12:02;6.20;;;1.70;;
71646;SDS011;59706;45.634;11.704;2023-05-16T09:14:29;5.70;;;2.00;;
71646;SDS011;59706;45.634;11.704;2023-05-16T09:17:08;5.70;;;1.60;;
71646;SDS011;59706;45.634;11.704;2023-05-16T09:19:40;6.70;;;1.80;;
71646;SDS011;59706;45.634;11.704;2023-05-16T09:22:12;6.20;;;1.60;;
71646;SDS011;59706;45.634;11.704;2023-05-16T09:24:59;5.80;;;1.40;;
71646;SDS011;59706;45.634;11.704;2023-05-16T09:27:26;6.10;;;1.90;;
71646;SDS011;59706;45.634;11.704;2023-05-16T09:29:57;6.50;;;1.90;;
71646;SDS011;59706;45.634;11.704;2023-05-16T09:32:24;5.70;;;1.40;;
71646;SDS011;59706;45.634;11.704;2023-05-16T09:34:53;5.80;;;1.80;;
71646;SDS011;59706;45.634;11.704;2023-05-16T09:37:22;6.20;;;1.70;;
71646;SDS011;59706;45.634;11.704;2023-05-16T09:39:52;6.60;;;1.50;;
71646;SDS011;59706;45.634;11.704;2023-05-16T09:42:19;6.10;;;1.30;;
71646;SDS011;59706;45.634;11.704;2023-05-16T09:44:52;5.10;;;1.70;;
71646;SDS011;59706;45.634;11.704;2023-05-16T09:47:21;6.90;;;1.80;;
71646;SDS011;59706;45.634;11.704;2023-05-16T09:49:52;6.10;;;1.50;;
71646;SDS011;59706;45.634;11.704;2023-05-16T09:52:19;7.00;;;1.60;;
71646;SDS011;59706;45.634;11.704;2023-05-16T09:54:47;10.10;;;2.40;;
71646;SDS011;59706;45.634;11.704;2023-05-16T09:57:21;7.80;;;2.70;;
71646;SDS011;59706;45.634;11.704;2023-05-16T09:59:49;7.10;;;2.40;;
71646;SDS011;59706;45.634;11.704;2023-05-16T10:02:17;7.70;;;2.50;;
71646;SDS011;59706;45.634;11.704;2023-05-16T10:04:45;8.50;;;3.00;;
71646;SDS011;59706;45.634;11.704;2023-05-16T10:07:13;6.10;;;2.40;;
71646;SDS011;59706;45.634;11.704;2023-05-16T10:09:43;5.80;;;2.20;;
71646;SDS011;59706;45.634;11.704;2023-05-16T10:12:12;9.50;;;2.60;;
71646;SDS011;59706;45.634;11.704;2023-05-16T10:14:41;7.60;;;2.10;;
71646;SDS011;59706;45.634;11.704;2023-05-16T10:17:13;7.00;;;2.90;;
71646;SDS011;59706;45.634;11.704;2023-05-16T10:19:41;9.60;;;2.80;;
71646;SDS011;59706;45.634;11.704;2023-05-16T10:22:11;7.50;;;1.70;;
71646;SDS011;59706;45.634;11.704;2023-05-16T10:25:15;7.40;;;2.20;;
71646;SDS011;59706;45.634;11.704;2023-05-16T10:28:09;6.60;;;2.60;;
71646;SDS011;59706;45.634;11.704;2023-05-16T10:30:44;9.70;;;2.40;;
71646;SDS011;59706;45.634;11.704;2023-05-16T10:33:13;10.00;;;2.60;;
71646;SDS011;59706;45.634;11.704;2023-05-16T10:35:40;8.20;;;2.50;;
71646;SDS011;59706;45.634;11.704;2023-05-16T10:38:09;8.10;;;2.50;;
71646;SDS011;59706;45.634;11.704;2023-05-16T10:40:38;6.90;;;2.30;;
71646;SDS011;59706;45.634;11.704;2023-05-16T10:43:07;7.30;;;2.30;;
71646;SDS011;59706;45.634;11.704;2023-05-16T10:46:04;6.40;;;2.60;;
71646;SDS011;59706;45.634;11.704;2023-05-16T10:48:38;7.80;;;2.70;;
71646;SDS011;59706;45.634;11.704;2023-05-16T10:54:04;6.80;;;2.90;;
71646;SDS011;59706;45.634;11.704;2023-05-16T10:56:36;7.30;;;2.60;;
71646;SDS011;59706;45.634;11.704;2023-05-16T10:59:03;6.60;;;2.10;;
71646;SDS011;59706;45.634;11.704;2023-05-16T11:01:33;6.40;;;2.20;;
71646;SDS011;59706;45.634;11.704;2023-05-16T11:04:08;7.50;;;2.10;;
71646;SDS011;59706;45.634;11.704;2023-05-16T11:09:18;8.80;;;2.30;;
71646;SDS011;59706;45.634;11.704;2023-05-16T11:12:21;6.70;;;2.20;;
71646;SDS011;59706;45.634;11.704;2023-05-16T11:14:50;8.70;;;2.20;;
71646;SDS011;59706;45.634;11.704;2023-05-16T11:17:21;5.80;;;1.60;;
71646;SDS011;59706;45.634;11.704;2023-05-16T11:19:57;6.30;;;1.50;;
71646;SDS011;59706;45.634;11.704;2023-05-16T11:22:37;5.30;;;1.20;;
71646;SDS011;59706;45.634;11.704;2023-05-16T11:25:09;3.70;;;0.90;;
71646;SDS011;59706;45.634;11.704;2023-05-16T11:27:45;3.30;;;0.70;;
71646;SDS011;59706;45.634;11.704;2023-05-16T11:30:16;4.00;;;1.10;;
71646;SDS011;59706;45.634;11.704;2023-05-16T11:32:47;3.60;;;0.90;;
71646;SDS011;59706;45.634;11.704;2023-05-16T11:35:15;5.10;;;0.80;;
71646;SDS011;59706;45.634;11.704;2023-05-16T11:37:43;4.10;;;0.90;;
71646;SDS011;59706;45.634;11.704;2023-05-16T11:40:12;4.80;;;1.00;;
71646;SDS011;59706;45.634;11.704;2023-05-16T11:42:44;3.90;;;0.90;;
71646;SDS011;59706;45.634;11.704;2023-05-16T11:45:16;5.70;;;1.10;;
71646;SDS011;59706;45.634;11.704;2023-05-16T11:47:44;5.20;;;0.90;;
71646;SDS011;59706;45.634;11.704;2023-05-16T11:50:16;3.20;;;0.70;;
71646;SDS011;59706;45.634;11.704;2023-05-16T11:52:56;3.70;;;1.00;;
71646;SDS011;59706;45.634;11.704;2023-05-16T11:55:43;3.60;;;0.80;;
71646;SDS011;59706;45.634;11.704;2023-05-16T11:58:12;5.70;;;0.90;;
71646;SDS011;59706;45.634;11.704;2023-05-16T12:00:47;6.70;;;2.20;;
71646;SDS011;59706;45.634;11.704;2023-05-16T12:03:16;7.20;;;1.80;;
71646;SDS011;59706;45.634;11.704;2023-05-16T12:05:52;5.40;;;1.10;;
71646;SDS011;59706;45.634;11.704;2023-05-16T12:08:22;4.20;;;0.70;;
71646;SDS011;59706;45.634;11.704;2023-05-16T12:10:50;4.30;;;1.10;;
71646;SDS011;59706;45.634;11.704;2023-05-16T12:13:20;4.40;;;1.00;;
71646;SDS011;59706;45.634;11.704;2023-05-16T12:15:50;3.60;;;0.90;;
71646;SDS011;59706;45.634;11.704;2023-05-16T12:18:18;2.70;;;0.60;;
71646;SDS011;59706;45.634;11.704;2023-05-16T12:20:46;4.10;;;0.80;;
71646;SDS011;59706;45.634;11.704;2023-05-16T12:23:14;3.00;;;0.80;;
71646;SDS011;59706;45.634;11.704;2023-05-16T12:25:46;3.90;;;0.90;;
71646;SDS011;59706;45.634;11.704;2023-05-16T12:28:14;6.00;;;1.40;;
71646;SDS011;59706;45.634;11.704;2023-05-16T12:30:43;4.20;;;0.80;;
71646;SDS011;59706;45.634;11.704;2023-05-16T12:33:14;4.30;;;1.20;;
71646;SDS011;59706;45.634;11.704;2023-05-16T12:35:44;2.40;;;0.60;;
71646;SDS011;59706;45.634;11.704;2023-05-16T12:38:14;2.30;;;0.50;;
71646;SDS011;59706;45.634;11.704;2023-05-16T12:40:42;1.80;;;0.50;;
71646;SDS011;59706;45.634;11.704;2023-05-16T12:43:19;2.60;;;0.60;;
71646;SDS011;59706;45.634;11.704;2023-05-16T12:48:17;4.80;;;0.70;;
71646;SDS011;59706;45.634;11.704;2023-05-16T12:50:44;2.60;;;0.60;;
71646;SDS011;59706;45.634;11.704;2023-05-16T12:53:12;2.70;;;0.70;;
71646;SDS011;59706;45.634;11.704;2023-05-16T12:55:42;3.00;;;0.60;;
71646;SDS011;59706;45.634;11.704;2023-05-16T12:58:10;2.90;;;0.60;;
71646;SDS011;59706;45.634;11.704;2023-05-16T13:00:37;4.40;;;0.70;;
71646;SDS011;59706;45.634;11.704;2023-05-16T13:03:05;2.70;;;0.60;;
71646;SDS011;59706;45.634;11.704;2023-05-16T13:05:33;2.50;;;0.60;;
71646;SDS011;59706;45.634;11.704;2023-05-16T13:08:00;3.90;;;0.40;;
71646;SDS011;59706;45.634;11.704;2023-05-16T13:10:28;3.20;;;0.70;;
71646;SDS011;59706;45.634;11.704;2023-05-16T13:12:55;4.90;;;0.70;;
71646;SDS011;59706;45.634;11.704;2023-05-16T13:15:25;4.00;;;0.90;;
71646;SDS011;59706;45.634;11.704;2023-05-16T13:17:53;5.60;;;0.80;;
71646;SDS011;59706;45.634;11.704;2023-05-16T13:20:20;5.70;;;1.20;;
71646;SDS011;59706;45.634;11.704;2023-05-16T13:22:47;4.70;;;1.20;;
71646;SDS011;59706;45.634;11.704;2023-05-16T13:25:14;5.70;;;1.40;;
71646;SDS011;59706;45.634;11.704;2023-05-16T13:27:42;4.30;;;0.90;;
71646;SDS011;59706;45.634;11.704;2023-05-16T13:30:11;4.20;;;0.80;;
71646;SDS011;59706;45.634;11.704;2023-05-16T13:32:40;4.20;;;0.80;;
71646;SDS011;59706;45.634;11.704;2023-05-16T13:35:09;5.30;;;0.60;;
71646;SDS011;59706;45.634;11.704;2023-05-16T13:37:36;3.60;;;0.90;;
71646;SDS011;59706;45.634;11.704;2023-05-16T13:40:05;7.30;;;1.00;;
71646;SDS011;59706;45.634;11.704;2023-05-16T13:42:36;4.30;;;0.90;;
71646;SDS011;59706;45.634;11.704;2023-05-16T13:45:04;4.60;;;0.80;;
71646;SDS011;59706;45.634;11.704;2023-05-16T13:47:32;5.00;;;1.00;;
71646;SDS011;59706;45.634;11.704;2023-05-16T13:50:00;3.50;;;1.10;;
71646;SDS011;59706;45.634;11.704;2023-05-16T13:52:31;2.80;;;0.60;;
71646;SDS011;59706;45.634;11.704;2023-05-16T13:54:58;3.50;;;0.90;;
71646;SDS011;59706;45.634;11.704;2023-05-16T13:57:26;2.30;;;0.60;;
71646;SDS011;59706;45.634;11.704;2023-05-16T13:59:54;3.00;;;0.60;;
71646;SDS011;59706;45.634;11.704;2023-05-16T14:02:22;2.70;;;0.70;;
71646;SDS011;59706;45.634;11.704;2023-05-16T14:04:51;2.70;;;0.60;;
71646;SDS011;59706;45.634;11.704;2023-05-16T14:07:18;3.20;;;0.80;;
71646;SDS011;59706;45.634;11.704;2023-05-16T14:09:45;3.50;;;0.80;;
71646;SDS011;59706;45.634;11.704;2023-05-16T14:12:13;3.00;;;0.70;;
71646;SDS011;59706;45.634;11.704;2023-05-16T14:14:40;4.80;;;0.80;;
71646;SDS011;59706;45.634;11.704;2023-05-16T14:17:08;3.10;;;0.80;;
71646;SDS011;59706;45.634;11.704;2023-05-16T14:19:35;4.20;;;0.70;;
71646;SDS011;59706;45.634;11.704;2023-05-16T14:22:02;3.10;;;0.80;;
71646;SDS011;59706;45.634;11.704;2023-05-16T14:24:30;4.30;;;0.80;;
71646;SDS011;59706;45.634;11.704;2023-05-16T14:26:58;2.70;;;0.70;;
71646;SDS011;59706;45.634;11.704;2023-05-16T14:29:26;3.30;;;0.70;;
71646;SDS011;59706;45.634;11.704;2023-05-16T14:31:53;3.10;;;0.80;;
71646;SDS011;59706;45.634;11.704;2023-05-16T14:34:21;3.80;;;0.80;;
71646;SDS011;59706;45.634;11.704;2023-05-16T14:36:48;3.60;;;0.70;;
71646;SDS011;59706;45.634;11.704;2023-05-16T14:39:16;4.10;;;1.20;;
71646;SDS011;59706;45.634;11.704;2023-05-16T14:41:44;4.40;;;1.00;;
71646;SDS011;59706;45.634;11.704;2023-05-16T14:44:11;5.10;;;1.00;;
71646;SDS011;59706;45.634;11.704;2023-05-16T14:46:39;4.40;;;1.10;;
71646;SDS011;59706;45.634;11.704;2023-05-16T14:49:06;5.70;;;0.90;;
71646;SDS011;59706;45.634;11.704;2023-05-16T14:51:33;4.20;;;1.10;;
71646;SDS011;59706;45.634;11.704;2023-05-16T14:54:01;4.30;;;1.10;;
71646;SDS011;59706;45.634;11.704;2023-05-16T14:56:28;4.10;;;1.00;;
71646;SDS011;59706;45.634;11.704;2023-05-16T14:58:56;4.10;;;0.90;;
71646;SDS011;59706;45.634;11.704;2023-05-16T15:01:24;4.30;;;1.10;;
71646;SDS011;59706;45.634;11.704;2023-05-16T15:03:52;4.20;;;1.10;;
71646;SDS011;59706;45.634;11.704;2023-05-16T15:06:20;4.80;;;0.80;;
71646;SDS011;59706;45.634;11.704;2023-05-16T15:08:47;2.90;;;0.70;;
71646;SDS011;59706;45.634;11.704;2023-05-16T15:11:15;3.40;;;0.90;;
71646;SDS011;59706;45.634;11.704;2023-05-16T15:13:43;2.70;;;0.70;;
71646;SDS011;59706;45.634;11.704;2023-05-16T15:16:10;3.00;;;0.70;;
71646;SDS011;59706;45.634;11.704;2023-05-16T15:18:37;4.00;;;0.90;;
71646;SDS011;59706;45.634;11.704;2023-05-16T15:21:05;3.60;;;0.80;;
71646;SDS011;59706;45.634;11.704;2023-05-16T15:23:33;3.40;;;0.80;;
71646;SDS011;59706;45.634;11.704;2023-05-16T15:26:01;3.90;;;0.90;;
71646;SDS011;59706;45.634;11.704;2023-05-16T15:28:29;3.40;;;1.00;;
71646;SDS011;59706;45.634;11.704;2023-05-16T15:30:57;4.50;;;1.20;;